sensor_id;sensor_type;location;lat;lon;timestamp;P1;durP1;ratioP1;P2;durP2;ratioP2
21444;SDS011;10883;51.946;20.140;2022-12-18T00:01:56;80.70;;;27.97;;
21444;SDS011;10883;51.946;20.140;2022-12-18T00:04:24;85.73;;;29.87;;
21444;SDS011;10883;51.946;20.140;2022-12-18T00:06:51;80.83;;;28.33;;
21444;SDS011;10883;51.946;20.140;2022-12-18T00:09:17;75.93;;;28.63;;
21444;SDS011;10883;51.946;20.140;2022-12-18T00:11:42;85.53;;;28.37;;
21444;SDS011;10883;51.946;20.140;2022-12-18T00:14:09;79.97;;;28.97;;
21444;SDS011;10883;51.946;20.140;2022-12-18T00:16:36;80.37;;;28.53;;
21444;SDS011;10883;51.946;20.140;2022-12-18T00:19:02;72.13;;;26.07;;
21444;SDS011;10883;51.946;20.140;2022-12-18T00:21:30;74.97;;;26.10;;
21444;SDS011;10883;51.946;20.140;2022-12-18T00:23:57;86.90;;;31.80;;
21444;SDS011;10883;51.946;20.140;2022-12-18T00:26:25;74.97;;;27.23;;
21444;SDS011;10883;51.946;20.140;2022-12-18T00:28:58;87.90;;;28.83;;
21444;SDS011;10883;51.946;20.140;2022-12-18T00:31:25;77.53;;;28.13;;
21444;SDS011;10883;51.946;20.140;2022-12-18T00:33:53;77.77;;;27.80;;
21444;SDS011;10883;51.946;20.140;2022-12-18T00:36:21;86.23;;;31.23;;
21444;SDS011;10883;51.946;20.140;2022-12-18T00:38:49;79.43;;;29.67;;
21444;SDS011;10883;51.946;20.140;2022-12-18T00:41:15;85.80;;;29.10;;
21444;SDS011;10883;51.946;20.140;2022-12-18T00:44:03;76.03;;;28.00;;
21444;SDS011;10883;51.946;20.140;2022-12-18T00:46:29;83.77;;;30.03;;
21444;SDS011;10883;51.946;20.140;2022-12-18T00:48:55;76.70;;;29.00;;
21444;SDS011;10883;51.946;20.140;2022-12-18T00:51:21;85.30;;;31.77;;
21444;SDS011;10883;51.946;20.140;2022-12-18T00:53:47;84.87;;;29.53;;
21444;SDS011;10883;51.946;20.140;2022-12-18T00:56:13;94.27;;;31.53;;
21444;SDS011;10883;51.946;20.140;2022-12-18T00:58:39;91.90;;;33.30;;
21444;SDS011;10883;51.946;20.140;2022-12-18T01:01:04;90.20;;;32.00;;
21444;SDS011;10883;51.946;20.140;2022-12-18T01:03:31;81.20;;;30.70;;
21444;SDS011;10883;51.946;20.140;2022-12-18T01:05:57;96.80;;;32.40;;
21444;SDS011;10883;51.946;20.140;2022-12-18T01:08:23;90.93;;;32.10;;
21444;SDS011;10883;51.946;20.140;2022-12-18T01:10:49;83.43;;;29.23;;
21444;SDS011;10883;51.946;20.140;2022-12-18T01:13:14;79.90;;;27.77;;
21444;SDS011;10883;51.946;20.140;2022-12-18T01:15:40;93.70;;;30.53;;
21444;SDS011;10883;51.946;20.140;2022-12-18T01:18:14;97.87;;;28.43;;
21444;SDS011;10883;51.946;20.140;2022-12-18T01:20:39;83.93;;;27.17;;
21444;SDS011;10883;51.946;20.140;2022-12-18T01:23:05;96.87;;;30.27;;
21444;SDS011;10883;51.946;20.140;2022-12-18T01:25:31;81.73;;;30.00;;
21444;SDS011;10883;51.946;20.140;2022-12-18T01:27:57;91.47;;;30.03;;
21444;SDS011;10883;51.946;20.140;2022-12-18T01:30:23;86.27;;;29.67;;
21444;SDS011;10883;51.946;20.140;2022-12-18T01:32:49;92.13;;;30.27;;
21444;SDS011;10883;51.946;20.140;2022-12-18T01:35:14;100.67;;;31.60;;
21444;SDS011;10883;51.946;20.140;2022-12-18T01:37:40;81.63;;;30.13;;
21444;SDS011;10883;51.946;20.140;2022-12-18T01:40:06;84.23;;;26.97;;
21444;SDS011;10883;51.946;20.140;2022-12-18T01:42:32;78.57;;;28.60;;
21444;SDS011;10883;51.946;20.140;2022-12-18T01:50:41;89.53;;;32.13;;
21444;SDS011;10883;51.946;20.140;2022-12-18T01:53:15;100.00;;;33.37;;
21444;SDS011;10883;51.946;20.140;2022-12-18T01:55:45;91.30;;;32.27;;
21444;SDS011;10883;51.946;20.140;2022-12-18T01:58:13;92.57;;;30.97;;
21444;SDS011;10883;51.946;20.140;2022-12-18T02:00:40;101.40;;;34.97;;
21444;SDS011;10883;51.946;20.140;2022-12-18T02:03:06;118.00;;;37.33;;
21444;SDS011;10883;51.946;20.140;2022-12-18T02:05:49;101.00;;;33.90;;
21444;SDS011;10883;51.946;20.140;2022-12-18T02:08:37;100.33;;;33.23;;
21444;SDS011;10883;51.946;20.140;2022-12-18T02:11:22;91.73;;;31.53;;
21444;SDS011;10883;51.946;20.140;2022-12-18T02:17:11;103.43;;;32.23;;
21444;SDS011;10883;51.946;20.140;2022-12-18T02:27:45;105.57;;;32.20;;
21444;SDS011;10883;51.946;20.140;2022-12-18T02:30:12;94.17;;;32.80;;
21444;SDS011;10883;51.946;20.140;2022-12-18T02:32:43;88.47;;;31.17;;
21444;SDS011;10883;51.946;20.140;2022-12-18T02:35:15;83.50;;;28.37;;
21444;SDS011;10883;51.946;20.140;2022-12-18T02:37:45;83.67;;;29.20;;
21444;SDS011;10883;51.946;20.140;2022-12-18T02:40:13;88.40;;;28.30;;
21444;SDS011;10883;51.946;20.140;2022-12-18T02:42:40;93.80;;;31.93;;
21444;SDS011;10883;51.946;20.140;2022-12-18T02:45:06;85.97;;;30.07;;
21444;SDS011;10883;51.946;20.140;2022-12-18T02:47:33;85.87;;;30.80;;
21444;SDS011;10883;51.946;20.140;2022-12-18T02:50:07;82.60;;;29.10;;
21444;SDS011;10883;51.946;20.140;2022-12-18T02:53:10;97.83;;;31.33;;
21444;SDS011;10883;51.946;20.140;2022-12-18T02:55:51;87.53;;;31.17;;
21444;SDS011;10883;51.946;20.140;2022-12-18T03:06:22;87.53;;;29.03;;
21444;SDS011;10883;51.946;20.140;2022-12-18T03:08:54;85.13;;;29.50;;
21444;SDS011;10883;51.946;20.140;2022-12-18T03:11:23;93.53;;;32.70;;
21444;SDS011;10883;51.946;20.140;2022-12-18T03:14:09;89.70;;;32.93;;
21444;SDS011;10883;51.946;20.140;2022-12-18T03:16:38;141.50;;;43.83;;
21444;SDS011;10883;51.946;20.140;2022-12-18T03:19:11;116.03;;;36.33;;
21444;SDS011;10883;51.946;20.140;2022-12-18T03:21:42;110.10;;;35.47;;
21444;SDS011;10883;51.946;20.140;2022-12-18T03:24:11;90.43;;;29.87;;
21444;SDS011;10883;51.946;20.140;2022-12-18T03:26:40;76.07;;;27.97;;
21444;SDS011;10883;51.946;20.140;2022-12-18T03:29:11;79.57;;;27.70;;
21444;SDS011;10883;51.946;20.140;2022-12-18T03:31:42;77.70;;;28.90;;
21444;SDS011;10883;51.946;20.140;2022-12-18T03:34:14;79.03;;;29.23;;
21444;SDS011;10883;51.946;20.140;2022-12-18T03:36:46;85.70;;;30.10;;
21444;SDS011;10883;51.946;20.140;2022-12-18T03:39:12;83.43;;;29.23;;
21444;SDS011;10883;51.946;20.140;2022-12-18T03:42:43;87.10;;;30.87;;
21444;SDS011;10883;51.946;20.140;2022-12-18T03:44:45;89.23;;;38.27;;
21444;SDS011;10883;51.946;20.140;2022-12-18T03:52:52;88.77;;;31.53;;
21444;SDS011;10883;51.946;20.140;2022-12-18T03:55:25;94.60;;;32.77;;
21444;SDS011;10883;51.946;20.140;2022-12-18T03:57:55;90.87;;;32.17;;
21444;SDS011;10883;51.946;20.140;2022-12-18T04:00:22;88.80;;;31.70;;
21444;SDS011;10883;51.946;20.140;2022-12-18T04:02:51;88.00;;;31.07;;
21444;SDS011;10883;51.946;20.140;2022-12-18T04:05:19;75.90;;;28.53;;
21444;SDS011;10883;51.946;20.140;2022-12-18T04:07:47;70.07;;;28.10;;
21444;SDS011;10883;51.946;20.140;2022-12-18T04:10:15;77.93;;;30.30;;
21444;SDS011;10883;51.946;20.140;2022-12-18T04:12:41;76.07;;;27.83;;
21444;SDS011;10883;51.946;20.140;2022-12-18T04:15:07;82.53;;;29.00;;
21444;SDS011;10883;51.946;20.140;2022-12-18T04:17:35;89.43;;;33.83;;
21444;SDS011;10883;51.946;20.140;2022-12-18T04:20:01;81.40;;;29.70;;
21444;SDS011;10883;51.946;20.140;2022-12-18T04:22:28;98.03;;;32.37;;
21444;SDS011;10883;51.946;20.140;2022-12-18T04:24:54;80.00;;;29.30;;
21444;SDS011;10883;51.946;20.140;2022-12-18T04:27:19;84.80;;;29.87;;
21444;SDS011;10883;51.946;20.140;2022-12-18T04:29:45;74.47;;;29.77;;
21444;SDS011;10883;51.946;20.140;2022-12-18T04:32:11;88.03;;;29.50;;
21444;SDS011;10883;51.946;20.140;2022-12-18T04:34:37;80.57;;;31.63;;
21444;SDS011;10883;51.946;20.140;2022-12-18T04:37:03;75.70;;;29.33;;
21444;SDS011;10883;51.946;20.140;2022-12-18T04:39:29;79.57;;;29.63;;
21444;SDS011;10883;51.946;20.140;2022-12-18T04:41:55;76.27;;;27.63;;
21444;SDS011;10883;51.946;20.140;2022-12-18T04:44:21;74.67;;;27.43;;
21444;SDS011;10883;51.946;20.140;2022-12-18T04:46:46;80.77;;;30.37;;
21444;SDS011;10883;51.946;20.140;2022-12-18T04:49:12;73.07;;;27.30;;
21444;SDS011;10883;51.946;20.140;2022-12-18T04:51:38;87.20;;;30.97;;
21444;SDS011;10883;51.946;20.140;2022-12-18T04:54:04;75.37;;;28.70;;
21444;SDS011;10883;51.946;20.140;2022-12-18T04:56:30;70.80;;;26.73;;
21444;SDS011;10883;51.946;20.140;2022-12-18T04:58:57;75.27;;;26.87;;
21444;SDS011;10883;51.946;20.140;2022-12-18T05:01:23;71.27;;;27.43;;
21444;SDS011;10883;51.946;20.140;2022-12-18T05:03:50;68.53;;;26.40;;
21444;SDS011;10883;51.946;20.140;2022-12-18T05:06:16;73.60;;;28.17;;
21444;SDS011;10883;51.946;20.140;2022-12-18T05:08:42;75.40;;;28.13;;
21444;SDS011;10883;51.946;20.140;2022-12-18T05:11:09;74.30;;;29.10;;
21444;SDS011;10883;51.946;20.140;2022-12-18T05:13:37;73.43;;;28.27;;
21444;SDS011;10883;51.946;20.140;2022-12-18T05:16:03;78.83;;;29.90;;
21444;SDS011;10883;51.946;20.140;2022-12-18T05:18:30;79.40;;;27.43;;
21444;SDS011;10883;51.946;20.140;2022-12-18T05:20:56;82.23;;;29.13;;
21444;SDS011;10883;51.946;20.140;2022-12-18T05:23:22;83.43;;;28.07;;
21444;SDS011;10883;51.946;20.140;2022-12-18T05:25:52;80.70;;;28.63;;
21444;SDS011;10883;51.946;20.140;2022-12-18T05:28:20;82.33;;;31.67;;
21444;SDS011;10883;51.946;20.140;2022-12-18T05:30:49;78.63;;;27.43;;
21444;SDS011;10883;51.946;20.140;2022-12-18T05:33:23;69.30;;;27.87;;
21444;SDS011;10883;51.946;20.140;2022-12-18T05:35:50;77.97;;;29.70;;
21444;SDS011;10883;51.946;20.140;2022-12-18T05:38:21;81.90;;;29.50;;
21444;SDS011;10883;51.946;20.140;2022-12-18T05:40:50;89.13;;;31.10;;
21444;SDS011;10883;51.946;20.140;2022-12-18T05:43:18;83.37;;;29.97;;
21444;SDS011;10883;51.946;20.140;2022-12-18T05:45:46;88.47;;;30.37;;
21444;SDS011;10883;51.946;20.140;2022-12-18T05:48:13;82.67;;;29.03;;
21444;SDS011;10883;51.946;20.140;2022-12-18T05:50:40;72.73;;;26.77;;
21444;SDS011;10883;51.946;20.140;2022-12-18T05:53:07;77.00;;;27.53;;
21444;SDS011;10883;51.946;20.140;2022-12-18T05:55:36;85.00;;;30.50;;
21444;SDS011;10883;51.946;20.140;2022-12-18T05:58:04;74.93;;;27.63;;
21444;SDS011;10883;51.946;20.140;2022-12-18T06:00:31;74.00;;;27.03;;
21444;SDS011;10883;51.946;20.140;2022-12-18T06:02:59;70.23;;;26.87;;
21444;SDS011;10883;51.946;20.140;2022-12-18T06:05:26;67.47;;;26.10;;
21444;SDS011;10883;51.946;20.140;2022-12-18T06:07:51;64.30;;;25.20;;
21444;SDS011;10883;51.946;20.140;2022-12-18T06:10:17;64.70;;;25.53;;
21444;SDS011;10883;51.946;20.140;2022-12-18T06:12:43;66.17;;;25.03;;
21444;SDS011;10883;51.946;20.140;2022-12-18T06:15:09;67.63;;;25.30;;
21444;SDS011;10883;51.946;20.140;2022-12-18T06:17:35;69.43;;;25.87;;
21444;SDS011;10883;51.946;20.140;2022-12-18T06:20:01;80.27;;;28.93;;
21444;SDS011;10883;51.946;20.140;2022-12-18T06:22:27;70.70;;;27.33;;
21444;SDS011;10883;51.946;20.140;2022-12-18T06:24:55;67.53;;;26.47;;
21444;SDS011;10883;51.946;20.140;2022-12-18T06:27:21;73.53;;;28.00;;
21444;SDS011;10883;51.946;20.140;2022-12-18T06:29:47;76.90;;;28.23;;
21444;SDS011;10883;51.946;20.140;2022-12-18T06:32:13;70.50;;;26.93;;
21444;SDS011;10883;51.946;20.140;2022-12-18T06:34:38;74.27;;;29.00;;
21444;SDS011;10883;51.946;20.140;2022-12-18T06:37:04;71.70;;;29.47;;
21444;SDS011;10883;51.946;20.140;2022-12-18T06:39:30;84.63;;;29.33;;
21444;SDS011;10883;51.946;20.140;2022-12-18T06:41:55;91.63;;;31.07;;
21444;SDS011;10883;51.946;20.140;2022-12-18T06:44:21;94.27;;;33.67;;
21444;SDS011;10883;51.946;20.140;2022-12-18T06:46:47;71.53;;;27.97;;
21444;SDS011;10883;51.946;20.140;2022-12-18T06:49:13;84.43;;;30.63;;
21444;SDS011;10883;51.946;20.140;2022-12-18T06:51:40;82.47;;;31.37;;
21444;SDS011;10883;51.946;20.140;2022-12-18T06:54:06;79.93;;;29.00;;
21444;SDS011;10883;51.946;20.140;2022-12-18T06:56:32;78.43;;;30.07;;
21444;SDS011;10883;51.946;20.140;2022-12-18T06:58:58;73.27;;;26.57;;
21444;SDS011;10883;51.946;20.140;2022-12-18T07:01:24;70.63;;;27.87;;
21444;SDS011;10883;51.946;20.140;2022-12-18T07:03:53;71.77;;;28.87;;
21444;SDS011;10883;51.946;20.140;2022-12-18T07:06:22;73.70;;;27.33;;
21444;SDS011;10883;51.946;20.140;2022-12-18T07:08:49;75.27;;;28.80;;
21444;SDS011;10883;51.946;20.140;2022-12-18T07:11:16;80.27;;;29.57;;
21444;SDS011;10883;51.946;20.140;2022-12-18T07:13:43;84.60;;;32.30;;
21444;SDS011;10883;51.946;20.140;2022-12-18T07:16:13;72.57;;;28.13;;
21444;SDS011;10883;51.946;20.140;2022-12-18T07:18:40;79.97;;;30.27;;
21444;SDS011;10883;51.946;20.140;2022-12-18T07:21:10;69.00;;;25.93;;
21444;SDS011;10883;51.946;20.140;2022-12-18T07:23:39;79.67;;;30.97;;
21444;SDS011;10883;51.946;20.140;2022-12-18T07:26:10;75.43;;;32.03;;
21444;SDS011;10883;51.946;20.140;2022-12-18T07:28:38;135.13;;;51.67;;
21444;SDS011;10883;51.946;20.140;2022-12-18T07:31:05;87.67;;;36.37;;
21444;SDS011;10883;51.946;20.140;2022-12-18T07:33:43;99.57;;;38.43;;
21444;SDS011;10883;51.946;20.140;2022-12-18T07:36:09;75.17;;;28.27;;
21444;SDS011;10883;51.946;20.140;2022-12-18T07:38:36;95.03;;;35.77;;
21444;SDS011;10883;51.946;20.140;2022-12-18T07:41:06;118.50;;;43.63;;
21444;SDS011;10883;51.946;20.140;2022-12-18T07:43:34;85.00;;;35.37;;
21444;SDS011;10883;51.946;20.140;2022-12-18T07:46:00;99.13;;;37.83;;
21444;SDS011;10883;51.946;20.140;2022-12-18T07:48:27;100.87;;;40.67;;
21444;SDS011;10883;51.946;20.140;2022-12-18T07:50:55;98.17;;;41.83;;
21444;SDS011;10883;51.946;20.140;2022-12-18T07:53:23;76.70;;;30.57;;
21444;SDS011;10883;51.946;20.140;2022-12-18T07:55:54;70.23;;;26.97;;
21444;SDS011;10883;51.946;20.140;2022-12-18T07:58:21;66.63;;;26.53;;
21444;SDS011;10883;51.946;20.140;2022-12-18T08:00:49;60.90;;;25.70;;
21444;SDS011;10883;51.946;20.140;2022-12-18T08:03:15;70.47;;;26.93;;
21444;SDS011;10883;51.946;20.140;2022-12-18T08:05:41;72.40;;;26.20;;
21444;SDS011;10883;51.946;20.140;2022-12-18T08:08:07;77.97;;;29.10;;
21444;SDS011;10883;51.946;20.140;2022-12-18T08:10:32;72.17;;;26.20;;
21444;SDS011;10883;51.946;20.140;2022-12-18T08:12:58;63.87;;;25.23;;
21444;SDS011;10883;51.946;20.140;2022-12-18T08:15:24;74.40;;;29.70;;
21444;SDS011;10883;51.946;20.140;2022-12-18T08:17:50;64.20;;;26.47;;
21444;SDS011;10883;51.946;20.140;2022-12-18T08:20:15;73.83;;;28.17;;
21444;SDS011;10883;51.946;20.140;2022-12-18T08:22:43;92.93;;;36.63;;
21444;SDS011;10883;51.946;20.140;2022-12-18T08:25:09;67.13;;;27.13;;
21444;SDS011;10883;51.946;20.140;2022-12-18T08:27:35;59.07;;;25.53;;
21444;SDS011;10883;51.946;20.140;2022-12-18T08:30:01;66.50;;;26.23;;
21444;SDS011;10883;51.946;20.140;2022-12-18T08:32:28;69.20;;;27.47;;
21444;SDS011;10883;51.946;20.140;2022-12-18T08:34:54;66.50;;;26.10;;
21444;SDS011;10883;51.946;20.140;2022-12-18T08:37:20;59.43;;;23.97;;
21444;SDS011;10883;51.946;20.140;2022-12-18T08:39:46;59.67;;;24.47;;
21444;SDS011;10883;51.946;20.140;2022-12-18T08:42:12;57.53;;;24.03;;
21444;SDS011;10883;51.946;20.140;2022-12-18T08:44:56;85.17;;;31.13;;
21444;SDS011;10883;51.946;20.140;2022-12-18T08:47:22;69.03;;;26.90;;
21444;SDS011;10883;51.946;20.140;2022-12-18T08:49:48;64.17;;;26.40;;
21444;SDS011;10883;51.946;20.140;2022-12-18T08:52:13;52.93;;;21.53;;
21444;SDS011;10883;51.946;20.140;2022-12-18T08:54:39;60.07;;;25.03;;
21444;SDS011;10883;51.946;20.140;2022-12-18T08:57:06;63.47;;;25.60;;
21444;SDS011;10883;51.946;20.140;2022-12-18T08:59:32;66.83;;;26.93;;
21444;SDS011;10883;51.946;20.140;2022-12-18T09:01:59;64.63;;;25.30;;
21444;SDS011;10883;51.946;20.140;2022-12-18T09:04:26;92.40;;;31.77;;
21444;SDS011;10883;51.946;20.140;2022-12-18T09:06:52;139.30;;;54.70;;
21444;SDS011;10883;51.946;20.140;2022-12-18T09:09:21;80.87;;;37.80;;
21444;SDS011;10883;51.946;20.140;2022-12-18T09:11:48;110.00;;;36.33;;
21444;SDS011;10883;51.946;20.140;2022-12-18T09:14:14;99.67;;;35.10;;
21444;SDS011;10883;51.946;20.140;2022-12-18T09:16:40;67.00;;;25.70;;
21444;SDS011;10883;51.946;20.140;2022-12-18T09:19:06;65.93;;;26.93;;
21444;SDS011;10883;51.946;20.140;2022-12-18T09:21:34;132.20;;;41.73;;
21444;SDS011;10883;51.946;20.140;2022-12-18T09:24:04;93.90;;;34.20;;
21444;SDS011;10883;51.946;20.140;2022-12-18T09:26:30;72.47;;;29.57;;
21444;SDS011;10883;51.946;20.140;2022-12-18T09:28:56;68.47;;;28.10;;
21444;SDS011;10883;51.946;20.140;2022-12-18T09:31:23;73.07;;;29.33;;
21444;SDS011;10883;51.946;20.140;2022-12-18T09:33:49;94.37;;;38.40;;
21444;SDS011;10883;51.946;20.140;2022-12-18T09:36:16;82.67;;;35.90;;
21444;SDS011;10883;51.946;20.140;2022-12-18T09:38:43;104.77;;;40.97;;
21444;SDS011;10883;51.946;20.140;2022-12-18T09:44:01;71.57;;;28.93;;
21444;SDS011;10883;51.946;20.140;2022-12-18T09:46:35;68.13;;;29.30;;
21444;SDS011;10883;51.946;20.140;2022-12-18T09:49:06;78.30;;;30.20;;
21444;SDS011;10883;51.946;20.140;2022-12-18T09:51:41;68.40;;;28.23;;
21444;SDS011;10883;51.946;20.140;2022-12-18T09:54:22;72.53;;;28.37;;
21444;SDS011;10883;51.946;20.140;2022-12-18T09:57:18;68.10;;;26.73;;
21444;SDS011;10883;51.946;20.140;2022-12-18T10:00:29;74.40;;;29.70;;
21444;SDS011;10883;51.946;20.140;2022-12-18T10:02:35;121.47;;;43.10;;
21444;SDS011;10883;51.946;20.140;2022-12-18T10:05:10;112.70;;;40.33;;
21444;SDS011;10883;51.946;20.140;2022-12-18T10:10:28;75.57;;;29.63;;
21444;SDS011;10883;51.946;20.140;2022-12-18T10:19:15;93.90;;;35.00;;
21444;SDS011;10883;51.946;20.140;2022-12-18T10:26:50;146.77;;;44.17;;
21444;SDS011;10883;51.946;20.140;2022-12-18T10:29:18;125.27;;;43.70;;
21444;SDS011;10883;51.946;20.140;2022-12-18T10:31:45;117.30;;;41.73;;
21444;SDS011;10883;51.946;20.140;2022-12-18T10:34:11;64.93;;;27.57;;
21444;SDS011;10883;51.946;20.140;2022-12-18T10:36:40;78.17;;;31.93;;
21444;SDS011;10883;51.946;20.140;2022-12-18T10:39:16;80.50;;;32.73;;
21444;SDS011;10883;51.946;20.140;2022-12-18T10:41:51;77.67;;;30.90;;
21444;SDS011;10883;51.946;20.140;2022-12-18T10:44:33;70.80;;;28.53;;
21444;SDS011;10883;51.946;20.140;2022-12-18T10:47:03;75.53;;;30.23;;
21444;SDS011;10883;51.946;20.140;2022-12-18T10:49:36;137.37;;;42.13;;
21444;SDS011;10883;51.946;20.140;2022-12-18T10:54:47;99.37;;;35.30;;
21444;SDS011;10883;51.946;20.140;2022-12-18T10:57:20;69.73;;;30.23;;
21444;SDS011;10883;51.946;20.140;2022-12-18T10:59:59;85.27;;;30.30;;
21444;SDS011;10883;51.946;20.140;2022-12-18T11:02:45;105.23;;;36.73;;
21444;SDS011;10883;51.946;20.140;2022-12-18T11:05:24;80.37;;;31.53;;
21444;SDS011;10883;51.946;20.140;2022-12-18T11:07:50;80.23;;;28.30;;
21444;SDS011;10883;51.946;20.140;2022-12-18T11:10:25;74.63;;;29.00;;
21444;SDS011;10883;51.946;20.140;2022-12-18T11:13:11;90.53;;;33.93;;
21444;SDS011;10883;51.946;20.140;2022-12-18T11:15:42;88.80;;;35.90;;
21444;SDS011;10883;51.946;20.140;2022-12-18T11:18:15;95.63;;;34.13;;
21444;SDS011;10883;51.946;20.140;2022-12-18T11:20:51;93.10;;;34.40;;
21444;SDS011;10883;51.946;20.140;2022-12-18T11:23:20;86.27;;;31.73;;
21444;SDS011;10883;51.946;20.140;2022-12-18T11:25:52;89.87;;;32.90;;
21444;SDS011;10883;51.946;20.140;2022-12-18T11:29:07;114.33;;;41.80;;
21444;SDS011;10883;51.946;20.140;2022-12-18T11:33:59;102.93;;;37.57;;
21444;SDS011;10883;51.946;20.140;2022-12-18T11:36:46;91.17;;;32.30;;
21444;SDS011;10883;51.946;20.140;2022-12-18T11:41:59;111.73;;;38.87;;
21444;SDS011;10883;51.946;20.140;2022-12-18T11:44:55;128.83;;;43.53;;
21444;SDS011;10883;51.946;20.140;2022-12-18T11:47:38;141.40;;;46.27;;
21444;SDS011;10883;51.946;20.140;2022-12-18T11:50:12;90.73;;;34.40;;
21444;SDS011;10883;51.946;20.140;2022-12-18T11:52:42;160.20;;;59.13;;
21444;SDS011;10883;51.946;20.140;2022-12-18T11:55:16;158.20;;;62.37;;
21444;SDS011;10883;51.946;20.140;2022-12-18T11:58:54;105.23;;;41.70;;
21444;SDS011;10883;51.946;20.140;2022-12-18T12:01:18;92.77;;;34.57;;
21444;SDS011;10883;51.946;20.140;2022-12-18T12:15:04;149.73;;;47.70;;
21444;SDS011;10883;51.946;20.140;2022-12-18T12:23:02;123.50;;;45.33;;
21444;SDS011;10883;51.946;20.140;2022-12-18T12:25:51;108.90;;;41.53;;
21444;SDS011;10883;51.946;20.140;2022-12-18T12:33:38;152.97;;;52.57;;
21444;SDS011;10883;51.946;20.140;2022-12-18T12:36:18;131.00;;;44.87;;
21444;SDS011;10883;51.946;20.140;2022-12-18T12:39:00;187.30;;;56.90;;
21444;SDS011;10883;51.946;20.140;2022-12-18T12:41:30;185.47;;;53.70;;
21444;SDS011;10883;51.946;20.140;2022-12-18T12:44:27;192.40;;;57.40;;
21444;SDS011;10883;51.946;20.140;2022-12-18T12:46:56;136.53;;;46.57;;
21444;SDS011;10883;51.946;20.140;2022-12-18T12:49:26;134.73;;;44.53;;
21444;SDS011;10883;51.946;20.140;2022-12-18T12:52:00;137.53;;;45.97;;
21444;SDS011;10883;51.946;20.140;2022-12-18T12:54:40;112.07;;;39.10;;
21444;SDS011;10883;51.946;20.140;2022-12-18T12:58:10;189.93;;;61.23;;
21444;SDS011;10883;51.946;20.140;2022-12-18T13:05:38;118.30;;;38.93;;
21444;SDS011;10883;51.946;20.140;2022-12-18T13:08:06;108.43;;;36.53;;
21444;SDS011;10883;51.946;20.140;2022-12-18T13:10:35;117.30;;;40.77;;
21444;SDS011;10883;51.946;20.140;2022-12-18T13:20:39;111.10;;;40.80;;
21444;SDS011;10883;51.946;20.140;2022-12-18T13:26:31;144.53;;;44.67;;
21444;SDS011;10883;51.946;20.140;2022-12-18T13:31:58;139.50;;;47.37;;
21444;SDS011;10883;51.946;20.140;2022-12-18T13:36:48;130.67;;;45.93;;
21444;SDS011;10883;51.946;20.140;2022-12-18T13:41:48;129.83;;;43.87;;
21444;SDS011;10883;51.946;20.140;2022-12-18T13:44:34;129.60;;;46.23;;
21444;SDS011;10883;51.946;20.140;2022-12-18T13:47:02;106.67;;;38.37;;
21444;SDS011;10883;51.946;20.140;2022-12-18T13:49:36;123.57;;;39.17;;
21444;SDS011;10883;51.946;20.140;2022-12-18T13:52:16;114.90;;;38.43;;
21444;SDS011;10883;51.946;20.140;2022-12-18T13:54:48;105.33;;;36.73;;
21444;SDS011;10883;51.946;20.140;2022-12-18T13:59:55;146.00;;;47.37;;
21444;SDS011;10883;51.946;20.140;2022-12-18T14:02:25;109.07;;;34.10;;
21444;SDS011;10883;51.946;20.140;2022-12-18T14:04:53;136.37;;;41.73;;
21444;SDS011;10883;51.946;20.140;2022-12-18T14:07:23;146.37;;;47.00;;
21444;SDS011;10883;51.946;20.140;2022-12-18T14:12:29;158.00;;;54.70;;
21444;SDS011;10883;51.946;20.140;2022-12-18T14:18:19;144.37;;;49.33;;
21444;SDS011;10883;51.946;20.140;2022-12-18T14:20:59;124.37;;;39.47;;
21444;SDS011;10883;51.946;20.140;2022-12-18T14:26:00;129.67;;;44.77;;
21444;SDS011;10883;51.946;20.140;2022-12-18T14:28:27;146.73;;;51.10;;
21444;SDS011;10883;51.946;20.140;2022-12-18T14:30:54;125.70;;;44.90;;
21444;SDS011;10883;51.946;20.140;2022-12-18T14:33:25;140.30;;;47.63;;
21444;SDS011;10883;51.946;20.140;2022-12-18T14:36:00;114.37;;;38.17;;
21444;SDS011;10883;51.946;20.140;2022-12-18T14:38:29;135.07;;;43.07;;
21444;SDS011;10883;51.946;20.140;2022-12-18T14:40:56;94.00;;;34.33;;
21444;SDS011;10883;51.946;20.140;2022-12-18T14:43:23;115.90;;;35.33;;
21444;SDS011;10883;51.946;20.140;2022-12-18T14:45:50;131.60;;;40.90;;
21444;SDS011;10883;51.946;20.140;2022-12-18T14:48:18;127.43;;;40.17;;
21444;SDS011;10883;51.946;20.140;2022-12-18T14:54:01;129.77;;;41.87;;
21444;SDS011;10883;51.946;20.140;2022-12-18T14:56:33;129.20;;;40.63;;
21444;SDS011;10883;51.946;20.140;2022-12-18T14:59:01;116.57;;;37.47;;
21444;SDS011;10883;51.946;20.140;2022-12-18T15:01:33;135.90;;;41.77;;
21444;SDS011;10883;51.946;20.140;2022-12-18T15:04:02;124.67;;;42.93;;
21444;SDS011;10883;51.946;20.140;2022-12-18T15:06:30;134.83;;;44.50;;
21444;SDS011;10883;51.946;20.140;2022-12-18T15:09:03;341.40;;;84.53;;
21444;SDS011;10883;51.946;20.140;2022-12-18T15:11:45;197.93;;;58.67;;
21444;SDS011;10883;51.946;20.140;2022-12-18T15:14:21;112.80;;;38.00;;
21444;SDS011;10883;51.946;20.140;2022-12-18T15:16:54;106.73;;;37.03;;
21444;SDS011;10883;51.946;20.140;2022-12-18T15:19:26;116.23;;;40.03;;
21444;SDS011;10883;51.946;20.140;2022-12-18T15:21:59;129.90;;;44.37;;
21444;SDS011;10883;51.946;20.140;2022-12-18T15:24:27;136.00;;;42.83;;
21444;SDS011;10883;51.946;20.140;2022-12-18T15:26:55;154.10;;;53.67;;
21444;SDS011;10883;51.946;20.140;2022-12-18T15:29:22;138.63;;;48.10;;
21444;SDS011;10883;51.946;20.140;2022-12-18T15:31:58;120.37;;;42.50;;
21444;SDS011;10883;51.946;20.140;2022-12-18T15:34:28;115.47;;;39.80;;
21444;SDS011;10883;51.946;20.140;2022-12-18T15:36:54;115.30;;;37.77;;
21444;SDS011;10883;51.946;20.140;2022-12-18T15:39:20;117.47;;;38.03;;
21444;SDS011;10883;51.946;20.140;2022-12-18T15:41:46;156.67;;;44.03;;
21444;SDS011;10883;51.946;20.140;2022-12-18T15:44:30;138.03;;;45.30;;
21444;SDS011;10883;51.946;20.140;2022-12-18T15:46:56;107.03;;;34.80;;
21444;SDS011;10883;51.946;20.140;2022-12-18T15:49:22;115.27;;;36.93;;
21444;SDS011;10883;51.946;20.140;2022-12-18T15:51:50;132.73;;;41.97;;
21444;SDS011;10883;51.946;20.140;2022-12-18T15:54:19;128.43;;;38.97;;
21444;SDS011;10883;51.946;20.140;2022-12-18T15:57:07;120.20;;;41.27;;
21444;SDS011;10883;51.946;20.140;2022-12-18T15:59:54;141.73;;;47.47;;
21444;SDS011;10883;51.946;20.140;2022-12-18T16:02:23;148.70;;;47.13;;
21444;SDS011;10883;51.946;20.140;2022-12-18T16:04:50;145.33;;;46.73;;
21444;SDS011;10883;51.946;20.140;2022-12-18T16:07:17;124.70;;;43.13;;
21444;SDS011;10883;51.946;20.140;2022-12-18T16:09:43;128.83;;;39.40;;
21444;SDS011;10883;51.946;20.140;2022-12-18T16:12:15;111.73;;;38.07;;
21444;SDS011;10883;51.946;20.140;2022-12-18T16:14:44;111.63;;;37.03;;
21444;SDS011;10883;51.946;20.140;2022-12-18T16:17:11;112.63;;;38.47;;
21444;SDS011;10883;51.946;20.140;2022-12-18T16:19:37;119.17;;;39.50;;